Hauptseite
METAR-TAF:

METAR-TAF

Flughäfen :

Flughafen Ostrava

Ostrava, Tschechien

Breite: 49-41N, Länge: 018-07E, Höhe: 256 m

Beobachtung

Neuester Wetterbericht von vor 18 Minuten, um 18:30 UTC
Wind 4 kt aus Nordost
Temperatur -2°C
Luftfeuchtigkeit 80%
Luftdruck 1019 hPa
Sichtweite 10 km oder mehr
Leicht bewölkt in der Höhe von 2300 ft

METAR: LKMT 181830Z 05004KT 9999 FEW023 M02/M05 Q1019 R04/390194 NOSIG

Zeit: 19:48 (18:48 UTC)

Prognose

Neuester Wetterbericht von vor 1 Stunde und 48 Minuten, um 17:00 UTC
Gültige Prognose vom 18 um 18 UTC bis 20 um 00 UTC
Wind 2 kt aus unterschiedlichen Richtungen
Sichtweite 10 km oder mehr
keine Wolken unter 1500 m und keine Kumulonimbus oder Gewitterwolken
Zeitweise
vom 19 um 03 UTC bis 19 um 07 UTC
Sichtweite: 3000 m
feuchter Dunst

TAF: LKMT 181700Z 1818/2000 VRB02KT CAVOK TEMPO 1903/1907 3000 BR NSC

Wetterbeobachtungen und Prognosen von mehr als 4000 Flughäfen (METAR und TAF Bericht).

Die verfügbaren Stationen werden durch gelbe und rote Markierungen auf der Karte dargestellt.

Führen Sie die Maus auf sie, um den Namen der Station zu sehen.

Darauf klicken, um die Beobachtung von Wetterbeobachtungen und Prognosen zu sehen.

Um die Karte zu ändern : klicken Sie auf den grünen Tasten mit einem schwarzen Kreuz Zum Vergrößern, auf den grünen Button mit einem Gedankenstrich zu verkleinern, oder auf die grünen Pfeile für benachbarte Karten.


METAR-TAF: